Newmarket, Canada
Current Conditions -  °F | °C
As of 12:00 AM on Sunday 21 Dec 2014 (Local Time) from CYKZ Reporting Station
Overcast Overcast  
Wind Chill: 28°   Ceiling: 7800
Heat Index: 28°   Visibility: 12mi
Dew Point: 23°   Wind: 0mph
Humidity: 80%   Direction: NA
Pressure: 30.27"   Gusts: NA
Location:  44.04°N, 79.46°W
Report Text: CYKZ 210500Z 00000KT 12SM OVC078 M02/M05 A3027 RMK AS8 SLP261
Loading
Personal Weather Stations






























Interactive Weather Map New forecast layout! Learn more

10-Day Weather Forecast

Advertisements
Track Severe Weather on mobile